Moranburg, Kentucky
Current Conditions -  °F | °C
As of 9:15 PM on Monday 22 Dec 2014 (Local Time) from KFGX Reporting Station
Broken Clouds Broken Clouds  
Wind Chill: 43°   Ceiling: 6500
Heat Index: 46°   Visibility: 10mi
Dew Point: 39°   Wind: 6mph
Humidity: 76%   Direction: 120°ESE
Pressure: 29.8"   Gusts: NA
Location:  38.585°N, 83.7789°W
Report Text: KFGX 230215Z AUTO 12005KT 10SM BKN065 BKN090 08/04 A2980 RMK AO2 T00770037
Loading
Personal Weather Stations






























Interactive Weather Map New forecast layout! Learn more

10-Day Weather Forecast

Advertisements
Track Severe Weather on mobile